Time;durP1;ratioP1;P1;durP2;ratioP2;P2;SDS_P1;SDS_P2;PMS_P1;PMS_P2;Temp;Humidity;BMP_temperature;BMP_pressure;BME280_temperature;BME280_humidity;BME280_pressure;Samples;Min_cycle;Max_cycle;Signal;HPM_P1;HPM_P2
2022/09/24 00:01:33;;;;;;;27.42;23.48;;;;;;;11.79;100.00;101269.41;5320053;27;20039;-81
2022/09/24 00:04:08;;;;;;;27.00;22.83;;;;;;;11.76;100.00;101273.19;5341311;27;20048;-81
2022/09/24 00:06:46;;;;;;;29.60;23.42;;;;;;;11.72;100.00;101267.28;5322028;27;20164;-81
2022/09/24 00:09:20;;;;;;;29.52;23.20;;;;;;;11.71;100.00;101264.72;5337155;27;20031;-81
2022/09/24 00:11:52;;;;;;;29.80;23.38;;;;;;;11.72;100.00;101264.59;5341144;27;20031;-81
2022/09/24 00:14:23;;;;;;;28.15;23.60;;;;;;;11.75;100.00;101263.50;5337265;27;20038;-81
2022/09/24 00:16:55;;;;;;;29.17;24.20;;;;;;;11.77;100.00;101266.03;5340806;27;20498;-81
2022/09/24 00:19:26;;;;;;;27.35;22.25;;;;;;;11.81;100.00;101267.44;5343550;27;20072;-81
2022/09/24 00:21:57;;;;;;;25.45;22.00;;;;;;;11.73;100.00;101249.44;5339686;27;20023;-81
2022/09/24 00:27:19;;;;;;;27.70;22.58;;;;;;;11.76;100.00;101250.97;5336123;27;20035;-81
2022/09/24 00:29:50;;;;;;;28.20;23.15;;;;;;;11.75;100.00;101249.31;5338955;27;20547;-81
2022/09/24 00:32:23;;;;;;;26.08;21.88;;;;;;;11.78;100.00;101240.97;5342265;27;20020;-81
2022/09/24 00:34:54;;;;;;;26.40;21.85;;;;;;;11.69;100.00;101230.16;5342303;27;20038;-81
2022/09/24 00:37:27;;;;;;;27.55;23.42;;;;;;;11.73;100.00;101238.75;5322130;27;20027;-81
2022/09/24 00:39:58;;;;;;;29.30;22.10;;;;;;;11.77;100.00;101245.47;5340700;27;20631;-81
2022/09/24 00:42:31;;;;;;;26.98;22.27;;;;;;;11.79;100.00;101240.00;5341903;27;20081;-81
2022/09/24 00:45:04;;;;;;;26.33;21.65;;;;;;;11.82;100.00;101239.72;5340538;27;20055;-81
2022/09/24 00:47:38;;;;;;;28.90;22.85;;;;;;;11.80;100.00;101237.19;5342260;27;20145;-80
2022/09/24 00:50:38;;;;;;;26.80;22.35;;;;;;;11.78;100.00;101231.16;5341320;27;20047;-81
2022/09/24 00:53:17;;;;;;;25.45;21.88;;;;;;;11.80;100.00;101233.66;5320912;27;20722;-80
2022/09/24 00:55:53;;;;;;;24.30;21.17;;;;;;;11.76;100.00;101226.91;5339367;27;20039;-80
2022/09/24 00:58:27;;;;;;;23.95;20.52;;;;;;;11.79;100.00;101227.47;5342900;27;20067;-80
2022/09/24 01:01:06;;;;;;;22.05;19.58;;;;;;;11.78;100.00;101219.59;5337673;27;20077;-80
2022/09/24 01:03:41;;;;;;;21.40;19.08;;;;;;;11.80;100.00;101221.16;5338335;27;20036;-80
2022/09/24 01:06:12;;;;;;;23.15;20.00;;;;;;;11.76;100.00;101209.03;5320692;27;20024;-80
2022/09/24 01:08:44;;;;;;;21.60;19.30;;;;;;;11.79;100.00;101211.44;5342461;27;20038;-80
2022/09/24 01:11:35;;;;;;;22.25;18.83;;;;;;;11.79;100.00;101218.63;5340851;27;20023;-80
2022/09/24 01:14:15;;;;;;;21.70;18.77;;;;;;;11.78;100.00;101209.78;5338149;27;20410;-79
2022/09/24 01:17:06;;;;;;;20.85;18.60;;;;;;;11.82;100.00;101202.31;5340348;27;20076;-80
2022/09/24 01:20:08;;;;;;;23.85;20.70;;;;;;;11.78;100.00;101208.91;5340797;27;20025;-79
2022/09/24 01:23:07;;;;;;;20.92;18.48;;;;;;;11.79;100.00;101194.56;5342603;27;20017;-80
2022/09/24 01:26:07;;;;;;;24.17;20.52;;;;;;;11.78;100.00;101198.22;5342046;27;21296;-79
2022/09/24 01:29:12;;;;;;;22.70;19.40;;;;;;;11.75;100.00;101190.50;5323705;27;20020;-80
2022/09/24 01:31:49;;;;;;;25.38;19.75;;;;;;;11.77;100.00;101191.19;5343710;27;20158;-80
2022/09/24 01:34:26;;;;;;;25.00;19.55;;;;;;;11.74;100.00;101189.63;5340295;27;20026;-79
2022/09/24 01:36:59;;;;;;;22.40;19.63;;;;;;;11.78;100.00;101185.72;5345009;27;20019;-80
2022/09/24 01:39:33;;;;;;;22.05;19.65;;;;;;;11.77;100.00;101186.69;5345196;27;20023;-80
2022/09/24 01:42:06;;;;;;;20.88;18.30;;;;;;;11.74;100.00;101176.28;5346732;27;20032;-79
2022/09/24 01:44:38;;;;;;;21.90;19.52;;;;;;;11.73;100.00;101185.28;5353101;27;20076;-80
2022/09/24 01:47:17;;;;;;;21.63;19.02;;;;;;;11.76;100.00;101179.66;5342757;27;20032;-79
2022/09/24 01:49:52;;;;;;;22.42;19.42;;;;;;;11.76;100.00;101178.81;5342813;27;20416;-79
2022/09/24 01:52:30;;;;;;;23.73;19.63;;;;;;;11.73;100.00;101174.59;5343774;27;20076;-79
2022/09/24 01:55:06;;;;;;;22.38;19.52;;;;;;;11.73;100.00;101183.47;5343017;27;20390;-80
2022/09/24 01:57:42;;;;;;;25.02;20.33;;;;;;;11.72;100.00;101175.59;5343206;27;20477;-79
2022/09/24 02:00:17;;;;;;;22.00;18.90;;;;;;;11.66;100.00;101168.97;5344720;27;20024;-80
2022/09/24 02:03:14;;;;;;;22.80;20.30;;;;;;;11.70;100.00;101169.53;5342010;27;20054;-79
2022/09/24 02:06:03;;;;;;;24.48;20.20;;;;;;;11.70;100.00;101177.56;5339788;27;20107;-79
2022/09/24 02:08:40;;;;;;;24.90;19.77;;;;;;;11.71;100.00;101173.88;5319321;27;20027;-79
2022/09/24 02:11:20;;;;;;;22.73;19.67;;;;;;;11.70;100.00;101164.19;5342615;27;20032;-79
2022/09/24 02:14:03;;;;;;;23.50;19.48;;;;;;;11.74;100.00;101165.59;5344515;27;20111;-79
2022/09/24 02:16:48;;;;;;;24.45;21.40;;;;;;;11.73;100.00;101161.25;5326695;27;20477;-80
2022/09/24 02:19:24;;;;;;;24.80;20.92;;;;;;;11.70;100.00;101162.34;5343403;27;20619;-79
2022/09/24 02:21:57;;;;;;;25.45;20.77;;;;;;;11.70;100.00;101159.69;5343171;27;21128;-79
2022/09/24 02:24:43;;;;;;;25.30;20.70;;;;;;;11.77;100.00;101162.63;5347181;27;20153;-80
2022/09/24 02:27:16;;;;;;;25.65;20.92;;;;;;;11.77;100.00;101156.47;5349344;27;20451;-78
2022/09/24 02:29:48;;;;;;;26.27;21.30;;;;;;;11.78;100.00;101156.31;5349479;27;20184;-79
2022/09/24 02:32:23;;;;;;;26.02;21.58;;;;;;;11.79;100.00;101154.47;5322212;27;20535;-78
2022/09/24 02:35:01;;;;;;;28.92;22.33;;;;;;;11.78;100.00;101160.81;5344784;27;20085;-80
2022/09/24 02:37:39;;;;;;;27.63;22.30;;;;;;;11.78;100.00;101156.31;5343876;27;20064;-80
2022/09/24 02:40:12;;;;;;;25.95;22.88;;;;;;;11.76;100.00;101154.75;5343093;27;20038;-79
2022/09/24 02:42:44;;;;;;;28.80;23.48;;;;;;;11.79;100.00;101154.47;5344209;27;20070;-80
2022/09/24 02:45:15;;;;;;;27.58;23.50;;;;;;;11.76;100.00;101144.91;5342472;27;20110;-79
2022/09/24 02:47:47;;;;;;;30.52;24.92;;;;;;;11.75;100.00;101150.41;5344404;27;20469;-80
2022/09/24 02:50:18;;;;;;;30.90;24.63;;;;;;;11.75;100.00;101147.75;5341299;27;20035;-80
2022/09/24 02:52:49;;;;;;;30.10;23.42;;;;;;;11.72;100.00;101140.84;5341904;27;20042;-80
2022/09/24 02:55:21;;;;;;;29.10;24.63;;;;;;;11.77;100.00;101141.25;5344493;27;20032;-80
2022/09/24 02:57:52;;;;;;;33.72;26.55;;;;;;;11.73;100.00;101139.88;5342014;27;20035;-80
2022/09/24 03:00:23;;;;;;;31.90;27.27;;;;;;;11.76;100.00;101139.56;5345177;27;20028;-80
2022/09/24 03:02:55;;;;;;;36.05;28.33;;;;;;;11.78;100.00;101148.31;5341222;27;20026;-80
2022/09/24 03:05:26;;;;;;;35.58;27.38;;;;;;;11.78;100.00;101142.97;5344860;27;20123;-80
2022/09/24 03:07:57;;;;;;;36.45;28.67;;;;;;;11.79;100.00;101143.78;5323204;27;20028;-80
2022/09/24 03:10:29;;;;;;;39.38;30.25;;;;;;;11.77;100.00;101135.91;5343343;27;20028;-80
2022/09/24 03:13:00;;;;;;;42.00;33.28;;;;;;;11.76;100.00;101139.56;5342170;27;20460;-80
2022/09/24 03:15:31;;;;;;;48.10;35.08;;;;;;;11.77;100.00;101135.91;5342422;27;20030;-80
2022/09/24 03:18:03;;;;;;;51.08;35.70;;;;;;;11.76;100.00;101138.72;5340778;27;20461;-80
2022/09/24 03:20:35;;;;;;;50.28;38.28;;;;;;;11.77;100.00;101135.91;5342183;27;20053;-80
2022/09/24 03:23:06;;;;;;;51.40;35.45;;;;;;;11.73;100.00;101126.50;5324493;27;20938;-80
2022/09/24 03:25:37;;;;;;;50.42;38.03;;;;;;;11.77;100.00;101135.09;5341064;27;20055;-80
2022/09/24 03:28:09;;;;;;;55.47;39.22;;;;;;;11.79;100.00;101130.44;5340077;27;20031;-80
2022/09/24 03:33:38;;;;;;;60.55;42.63;;;;;;;11.83;100.00;101131.81;5342862;27;20032;-80
2022/09/24 03:36:17;;;;;;;63.72;44.83;;;;;;;11.80;100.00;101132.97;5337470;27;20069;-80
2022/09/24 03:38:53;;;;;;;63.00;42.75;;;;;;;11.79;100.00;101125.91;5342611;27;20039;-80
2022/09/24 03:41:26;;;;;;;66.72;43.75;;;;;;;11.78;100.00;101120.72;5339877;27;20027;-80
2022/09/24 03:43:57;;;;;;;68.50;47.25;;;;;;;11.81;100.00;101123.94;5335573;27;20032;-80
2022/09/24 03:46:29;;;;;;;62.47;44.10;;;;;;;11.79;100.00;101119.75;5333229;27;20030;-80
2022/09/24 03:49:00;;;;;;;65.72;45.40;;;;;;;11.80;100.00;101126.75;5337934;27;20020;-80
2022/09/24 03:51:31;;;;;;;74.20;46.38;;;;;;;11.78;100.00;101120.72;5338514;27;20024;-80
2022/09/24 03:54:02;;;;;;;69.40;45.25;;;;;;;11.79;100.00;101115.22;5336018;27;20059;-80
2022/09/24 03:56:34;;;;;;;73.00;45.42;;;;;;;11.78;100.00;101115.38;5335433;27;20094;-80
2022/09/24 03:59:05;;;;;;;69.40;44.75;;;;;;;11.80;100.00;101113.38;5333623;27;20031;-79
2022/09/24 04:01:37;;;;;;;66.93;45.20;;;;;;;11.79;100.00;101111.72;5334927;27;20461;-80
2022/09/24 04:04:09;;;;;;;64.97;44.47;;;;;;;11.80;100.00;101113.38;5336732;27;20075;-80
2022/09/24 04:06:40;;;;;;;70.63;46.42;;;;;;;11.80;100.00;101110.72;5339251;27;20034;-80
2022/09/24 04:09:11;;;;;;;64.60;43.08;;;;;;;11.80;100.00;101105.38;5338628;27;20024;-80
2022/09/24 04:11:43;;;;;;;67.30;43.92;;;;;;;11.80;100.00;101103.56;5341280;27;20411;-80
2022/09/24 04:14:14;;;;;;;70.85;44.83;;;;;;;11.78;100.00;101096.66;5333362;27;20434;-80
2022/09/24 04:16:46;;;;;;;57.38;39.38;;;;;;;11.83;100.00;101103.28;5339221;27;20023;-80
2022/09/24 04:19:18;;;;;;;68.13;45.92;;;;;;;11.75;100.00;101086.28;5340183;27;20578;-80
2022/09/24 04:21:49;;;;;;;63.55;43.10;;;;;;;11.79;100.00;101093.00;5339798;27;20119;-80
2022/09/24 04:24:20;;;;;;;67.18;43.17;;;;;;;11.80;100.00;101089.34;5323728;27;20095;-80
2022/09/24 04:26:51;;;;;;;62.53;41.10;;;;;;;11.80;100.00;101087.53;5341138;27;20445;-80
2022/09/24 04:29:23;;;;;;;54.83;36.65;;;;;;;11.82;100.00;101088.22;5343040;27;20118;-80
2022/09/24 04:31:55;;;;;;;66.63;43.70;;;;;;;11.80;100.00;101092.00;5342220;27;20028;-80
2022/09/24 04:34:26;;;;;;;62.13;43.20;;;;;;;11.79;100.00;101096.53;5334395;27;20069;-80
2022/09/24 04:36:58;;;;;;;59.85;39.03;;;;;;;11.81;100.00;101093.72;5342509;27;20035;-80
2022/09/24 04:39:29;;;;;;;63.95;40.00;;;;;;;11.80;100.00;101092.88;5340557;27;20092;-80
2022/09/24 04:42:00;;;;;;;66.88;41.60;;;;;;;11.78;100.00;101088.66;5339333;27;20023;-81
2022/09/24 04:44:31;;;;;;;60.03;38.97;;;;;;;11.79;100.00;101093.00;5341727;27;20023;-80
2022/09/24 04:47:03;;;;;;;69.03;41.58;;;;;;;11.78;100.00;101085.97;5341627;27;20038;-80
2022/09/24 04:49:34;;;;;;;56.80;38.83;;;;;;;11.82;100.00;101098.09;5323897;27;20080;-80
2022/09/24 04:52:05;;;;;;;61.08;38.45;;;;;;;11.80;100.00;101090.19;5317742;27;20062;-80
2022/09/24 04:54:37;;;;;;;61.97;40.75;;;;;;;11.79;100.00;101093.84;5342245;27;20474;-80
2022/09/24 04:57:08;;;;;;;65.60;41.95;;;;;;;11.79;100.00;101095.69;5341342;27;20109;-80
2022/09/24 04:59:40;;;;;;;67.20;40.88;;;;;;;11.80;100.00;101097.34;5340139;27;20028;-80
2022/09/24 05:02:11;;;;;;;60.92;39.92;;;;;;;11.81;100.00;101096.38;5340721;27;20390;-80
2022/09/24 05:04:42;;;;;;;57.45;36.90;;;;;;;11.79;100.00;101088.50;5341438;27;20039;-80
2022/09/24 05:07:14;;;;;;;59.55;39.42;;;;;;;11.82;100.00;101088.22;5338311;27;20024;-80
2022/09/24 05:09:45;;;;;;;59.13;39.47;;;;;;;11.80;100.00;101089.34;5339150;27;20023;-80
2022/09/24 05:12:17;;;;;;;56.55;38.72;;;;;;;11.80;100.00;101094.69;5337094;27;20027;-80
2022/09/24 05:14:49;;;;;;;55.70;38.10;;;;;;;11.76;100.00;101096.81;5340716;27;20442;-80
2022/09/24 05:17:20;;;;;;;59.58;36.83;;;;;;;11.80;100.00;101092.88;5342191;27;20035;-80
2022/09/24 05:19:52;;;;;;;55.92;37.92;;;;;;;11.77;100.00;101098.50;5339541;27;20434;-80
2022/09/24 05:22:26;;;;;;;57.35;35.97;;;;;;;11.79;100.00;101101.88;5340961;27;20019;-80
2022/09/24 05:24:58;;;;;;;52.20;36.13;;;;;;;11.78;100.00;101107.34;5349586;27;20031;-79
2022/09/24 05:27:29;;;;;;;50.28;33.88;;;;;;;11.77;100.00;101106.53;5349025;27;20020;-79
2022/09/24 05:30:00;;;;;;;51.97;34.65;;;;;;;11.77;100.00;101101.16;5351427;27;20030;-80
2022/09/24 05:32:32;;;;;;;48.33;34.78;;;;;;;11.76;100.00;101099.47;5347229;27;20032;-79
2022/09/24 05:35:07;;;;;;;42.55;30.42;;;;;;;11.78;100.00;101097.53;5340160;27;20016;-79
2022/09/24 05:37:38;;;;;;;45.83;31.85;;;;;;;11.77;100.00;101103.00;5342096;27;20031;-80
2022/09/24 05:43:02;;;;;;;42.50;29.67;;;;;;;11.78;100.00;101096.66;5338528;27;20114;-80
2022/09/24 05:45:34;;;;;;;44.40;29.73;;;;;;;11.75;100.00;101091.63;5336382;27;20032;-80
2022/09/24 05:48:05;;;;;;;44.03;31.30;;;;;;;11.79;100.00;101101.88;5339248;27;20019;-80
2022/09/24 05:50:37;;;;;;;41.28;30.83;;;;;;;11.79;100.00;101107.22;5336203;27;20020;-80
2022/09/24 05:53:08;;;;;;;41.88;28.50;;;;;;;11.81;100.00;101115.94;5341648;27;20035;-80
2022/09/24 05:55:41;;;;;;;40.38;28.38;;;;;;;11.83;100.00;101108.63;5339921;27;20024;-80
2022/09/24 05:58:13;;;;;;;42.92;29.55;;;;;;;11.85;100.00;101108.47;5319125;27;20032;-80
2022/09/24 06:00:44;;;;;;;40.90;30.85;;;;;;;11.81;100.00;101110.56;5340071;27;20431;-80
2022/09/24 06:03:18;;;;;;;44.88;28.90;;;;;;;11.85;100.00;101108.47;5337467;27;20024;-80
2022/09/24 06:05:50;;;;;;;39.45;27.25;;;;;;;11.85;100.00;101114.66;5338020;27;20049;-80
2022/09/24 06:08:22;;;;;;;41.55;29.02;;;;;;;11.85;100.00;101119.16;5343603;27;20366;-80
2022/09/24 06:10:58;;;;;;;45.00;29.00;;;;;;;11.86;100.00;101110.16;5326645;27;20038;-80
2022/09/24 06:13:32;;;;;;;43.83;30.13;;;;;;;11.88;100.00;101119.69;5342224;27;20031;-81
2022/09/24 06:16:07;;;;;;;42.40;29.95;;;;;;;11.84;100.00;101112.13;5341431;27;20052;-81
2022/09/24 06:18:40;;;;;;;43.78;29.75;;;;;;;11.92;100.00;101125.63;5344823;27;20557;-81
2022/09/24 06:21:16;;;;;;;44.38;30.00;;;;;;;11.85;100.00;101116.47;5345747;27;20042;-81
2022/09/24 06:23:47;;;;;;;45.60;30.48;;;;;;;11.87;100.00;101119.88;5343259;27;20508;-80
2022/09/24 06:26:19;;;;;;;41.20;29.70;;;;;;;11.91;100.00;101126.63;5343767;27;20027;-81
2022/09/24 06:28:50;;;;;;;43.00;30.15;;;;;;;11.91;100.00;101129.31;5345046;27;20477;-80
2022/09/24 06:31:21;;;;;;;42.25;29.15;;;;;;;11.91;100.00;101126.63;5340643;27;20048;-81
2022/09/24 06:33:53;;;;;;;44.28;28.65;;;;;;;11.91;100.00;101123.97;5343391;27;20464;-80
2022/09/24 06:36:24;;;;;;;44.22;29.48;;;;;;;11.88;100.00;101122.38;5344951;27;20032;-81
2022/09/24 06:38:57;;;;;;;41.47;30.05;;;;;;;11.86;100.00;101124.34;5344603;27;20024;-81
2022/09/24 06:41:28;;;;;;;47.13;29.90;;;;;;;11.90;100.00;101132.94;5344422;27;21107;-82
2022/09/24 06:44:00;;;;;;;48.05;30.48;;;;;;;11.90;100.00;101131.16;5339998;27;20020;-80
2022/09/24 06:46:31;;;;;;;35.78;24.55;;;;;;;11.93;100.00;101132.69;5344486;27;20039;-81
2022/09/24 06:49:03;;;;;;;43.58;29.50;;;;;;;11.92;100.00;101141.66;5323979;27;20397;-81
2022/09/24 06:51:34;;;;;;;42.42;29.17;;;;;;;11.89;100.00;101136.59;5341502;27;20027;-80
2022/09/24 06:54:05;;;;;;;43.03;28.73;;;;;;;11.92;100.00;101133.66;5343423;27;20123;-80
2022/09/24 06:56:37;;;;;;;43.42;29.55;;;;;;;11.93;100.00;101132.69;5339210;27;20450;-81
2022/09/24 06:59:08;;;;;;;47.72;30.20;;;;;;;12.05;100.00;101146.72;5336978;27;20042;-82
2022/09/24 07:01:40;;;;;;;37.97;27.48;;;;;;;12.10;100.00;101145.31;5339699;27;20020;-81
2022/09/24 07:04:11;;;;;;;44.65;31.45;;;;;;;11.99;100.00;101133.94;5339427;27;20119;-81
2022/09/24 07:09:32;;;;;;;42.13;29.67;;;;;;;12.10;100.00;101150.66;5340800;27;20527;-81
2022/09/24 07:12:04;;;;;;;43.42;29.02;;;;;;;12.15;100.00;101144.00;5340263;27;20054;-81
2022/09/24 07:14:36;;;;;;;45.97;30.15;;;;;;;12.14;100.00;101150.38;5346627;27;20035;-81
2022/09/24 07:17:07;;;;;;;49.90;32.53;;;;;;;12.07;100.00;101161.63;5347494;27;20050;-81
2022/09/24 07:19:38;;;;;;;45.35;30.88;;;;;;;12.04;100.00;101148.56;5333002;27;20103;-81
2022/09/24 07:22:10;;;;;;;45.15;30.33;;;;;;;12.05;100.00;101150.25;5343022;27;20011;-81
2022/09/24 07:24:41;;;;;;;45.88;30.35;;;;;;;12.08;100.00;101157.97;5347145;27;20031;-81
2022/09/24 07:27:13;;;;;;;44.47;30.15;;;;;;;12.08;100.00;101154.47;5341893;27;20055;-81
2022/09/24 07:29:45;;;;;;;45.50;31.30;;;;;;;12.07;100.00;101155.44;5341505;27;20055;-81
2022/09/24 07:32:16;;;;;;;48.33;32.22;;;;;;;12.04;100.00;101156.59;5345813;27;20086;-81
2022/09/24 07:34:48;;;;;;;47.42;31.98;;;;;;;12.05;100.00;101152.91;5344468;27;20020;-81
2022/09/24 07:37:19;;;;;;;46.10;32.22;;;;;;;12.01;100.00;101148.84;5346858;27;20124;-81
2022/09/24 07:39:51;;;;;;;50.83;34.45;;;;;;;12.01;100.00;101153.34;5341934;27;20602;-81
2022/09/24 07:42:22;;;;;;;49.45;34.20;;;;;;;12.03;100.00;101160.25;5327735;27;20015;-81
2022/09/24 07:44:55;;;;;;;53.88;36.80;;;;;;;12.04;100.00;101167.28;5338681;27;20019;-81
2022/09/24 07:47:26;;;;;;;58.00;36.72;;;;;;;12.07;100.00;101166.97;5341809;27;20526;-81
2022/09/24 07:49:58;;;;;;;54.90;36.45;;;;;;;12.04;100.00;101169.97;5318939;27;20066;-81
2022/09/24 07:52:29;;;;;;;56.72;36.20;;;;;;;12.04;100.00;101166.41;5339524;27;20457;-81
2022/09/24 07:55:01;;;;;;;61.97;37.30;;;;;;;12.08;100.00;101176.69;5336088;27;20052;-81
2022/09/24 07:57:32;;;;;;;63.50;38.10;;;;;;;12.13;100.00;101170.91;5335526;27;20477;-81
2022/09/24 08:00:04;;;;;;;55.55;37.10;;;;;;;12.15;100.00;101184.13;5341988;27;20397;-81
2022/09/24 08:02:35;;;;;;;53.90;36.03;;;;;;;12.18;100.00;101179.31;5338169;27;21819;-81
2022/09/24 08:05:07;;;;;;;55.80;36.80;;;;;;;12.18;100.00;101176.66;5340891;27;20131;-81
2022/09/24 08:07:38;;;;;;;57.75;37.08;;;;;;;12.21;100.00;101173.69;5321703;27;20092;-82
2022/09/24 08:10:10;;;;;;;52.88;34.80;;;;;;;12.37;100.00;101177.59;5349462;27;20012;-81
2022/09/24 08:12:41;;;;;;;53.33;37.83;;;;;;;12.38;100.00;101173.94;5339890;27;20027;-81
2022/09/24 08:15:13;;;;;;;55.35;38.17;;;;;;;12.41;100.00;101184.34;5342087;27;20023;-81
2022/09/24 08:17:44;;;;;;;53.72;36.42;;;;;;;12.40;100.00;101185.34;5343000;27;20031;-81
2022/09/24 08:20:16;;;;;;;48.88;35.53;;;;;;;12.36;100.00;101199.97;5343860;27;20028;-81
2022/09/24 08:22:47;;;;;;;50.17;33.78;;;;;;;12.35;100.00;101196.47;5341720;27;20088;-81
2022/09/24 08:25:18;;;;;;;48.03;34.92;;;;;;;12.37;100.00;101196.31;5341935;27;20032;-81
2022/09/24 08:27:50;;;;;;;53.15;36.75;;;;;;;12.35;100.00;101193.78;5342648;27;20019;-81
2022/09/24 08:30:21;;;;;;;49.45;35.00;;;;;;;12.37;100.00;101196.31;5318444;27;20028;-81
2022/09/24 08:32:52;;;;;;;48.80;34.40;;;;;;;12.41;100.00;101201.25;5339499;27;20400;-81
2022/09/24 08:35:24;;;;;;;46.53;32.63;;;;;;;12.38;100.00;101198.03;5341680;27;20463;-81
2022/09/24 08:37:55;;;;;;;43.90;31.42;;;;;;;12.51;100.00;101203.88;5342553;27;20032;-81
2022/09/24 08:40:30;;;;;;;50.55;35.40;;;;;;;12.44;100.00;101200.09;5342755;27;20028;-81
2022/09/24 08:43:16;;;;;;;47.90;34.00;;;;;;;12.44;100.00;101211.63;5341238;27;20120;-81
2022/09/24 08:48:50;;;;;;;37.05;28.88;;;;;;;12.34;100.00;101212.66;5341558;27;20755;-81
2022/09/24 08:51:22;;;;;;;39.60;30.50;;;;;;;12.35;100.00;101214.34;5332570;27;20083;-81
2022/09/24 08:54:03;;;;;;;43.47;30.85;;;;;;;12.43;100.00;101215.31;5339722;27;20024;-81
2022/09/24 08:56:38;;;;;;;44.47;32.75;;;;;;;12.51;100.00;101211.91;5339953;27;20396;-81
2022/09/24 08:59:22;;;;;;;44.42;32.45;;;;;;;12.58;100.00;101214.84;5321181;27;20041;-82
2022/09/24 09:02:20;;;;;;;48.45;33.83;;;;;;;12.58;100.00;101212.16;5338071;27;20031;-81
2022/09/24 09:04:58;;;;;;;44.20;31.50;;;;;;;12.58;100.00;101220.19;5340716;27;20421;-81
2022/09/24 09:07:45;;;;;;;43.97;32.00;;;;;;;12.56;100.00;101223.00;5339226;27;20062;-81
2022/09/24 09:10:26;;;;;;;43.53;32.00;;;;;;;12.56;100.00;101220.34;5337224;27;20498;-82
2022/09/24 09:13:25;;;;;;;46.95;34.40;;;;;;;12.59;100.00;101216.53;5340015;27;20032;-81
2022/09/24 09:16:04;;;;;;;44.80;33.08;;;;;;;12.57;100.00;101221.16;5341975;27;20027;-81
2022/09/24 09:18:40;;;;;;;49.65;32.70;;;;;;;12.59;100.00;101216.53;5344804;27;20545;-81
2022/09/24 09:21:33;;;;;;;50.05;34.55;;;;;;;12.64;100.00;101223.13;5344495;27;20026;-81
2022/09/24 09:24:22;;;;;;;51.38;36.00;;;;;;;12.61;100.00;101220.75;5324370;27;20033;-81
2022/09/24 09:26:55;;;;;;;48.00;35.00;;;;;;;12.69;100.00;101225.34;5341438;27;20073;-80
2022/09/24 09:29:27;;;;;;;44.20;34.45;;;;;;;12.64;100.00;101232.97;5323071;27;20370;-81
2022/09/24 09:32:10;;;;;;;46.30;34.22;;;;;;;12.61;100.00;101222.59;5344998;27;20027;-81
2022/09/24 09:34:57;;;;;;;47.13;34.38;;;;;;;12.71;100.00;101235.91;5335281;27;20020;-81
2022/09/24 09:37:54;;;;;;;51.15;35.00;;;;;;;12.73;100.00;101229.44;5337005;27;20035;-80
2022/09/24 09:40:26;;;;;;;46.10;33.55;;;;;;;12.82;100.00;101231.22;5357519;27;20027;-81
2022/09/24 09:43:02;;;;;;;42.75;32.50;;;;;;;12.82;100.00;101227.72;5352269;27;20019;-82
2022/09/24 09:45:51;;;;;;;45.00;32.97;;;;;;;12.87;100.00;101225.44;5347068;27;20022;-81
2022/09/24 09:48:28;;;;;;;44.83;31.83;;;;;;;12.89;100.00;101226.13;5349102;27;20025;-82
2022/09/24 09:51:04;;;;;;;41.78;31.83;;;;;;;12.99;100.00;101216.22;5348904;27;20016;-81
2022/09/24 09:53:36;;;;;;;45.13;32.72;;;;;;;13.02;100.00;101228.44;5348204;27;20371;-82
2022/09/24 09:56:08;;;;;;;41.13;32.65;;;;;;;13.04;100.00;101219.28;5343990;27;20031;-81
2022/09/24 09:58:46;;;;;;;39.03;30.67;;;;;;;12.95;100.00;101220.16;5336140;27;20038;-81
2022/09/24 10:01:18;;;;;;;40.97;30.98;;;;;;;13.00;100.00;101225.91;5339794;27;20027;-81
2022/09/24 10:03:49;;;;;;;40.55;30.38;;;;;;;13.03;100.00;101230.16;5338391;27;20802;-81
2022/09/24 10:06:25;;;;;;;37.80;28.70;;;;;;;13.10;100.00;101231.22;5339244;27;20106;-81
2022/09/24 10:09:26;;;;;;;44.83;30.70;;;;;;;13.10;100.00;101225.88;5321301;27;20098;-80
2022/09/24 10:12:21;;;;;;;37.03;30.63;;;;;;;13.09;100.00;101234.88;5310486;27;20073;-80
2022/09/24 10:14:59;;;;;;;39.03;30.65;;;;;;;13.06;100.00;101229.84;5340394;27;20398;-80
2022/09/24 10:17:37;;;;;;;33.33;27.25;;;;;;;13.12;100.00;101231.09;5341340;27;20115;-81
2022/09/24 10:20:21;;;;;;;36.97;28.73;;;;;;;13.07;100.00;101230.69;5338588;27;20720;-81
2022/09/24 10:22:55;;;;;;;37.10;29.75;;;;;;;13.15;100.00;101222.75;5342340;27;20036;-81
2022/09/24 10:25:29;;;;;;;35.72;30.05;;;;;;;13.14;100.00;101226.41;5343782;27;20055;-81
2022/09/24 10:31:16;;;;;;;32.53;27.88;;;;;;;13.19;100.00;101211.56;5335496;27;21702;-81
2022/09/24 10:33:51;;;;;;;36.92;29.65;;;;;;;13.35;100.00;101218.13;5335136;27;20047;-80
2022/09/24 10:36:25;;;;;;;33.65;28.70;;;;;;;13.42;100.00;101227.25;5333908;27;20024;-81
2022/09/24 10:39:15;;;;;;;37.40;28.83;;;;;;;13.43;100.00;101215.56;5337935;27;20062;-81
2022/09/24 10:41:47;;;;;;;33.97;27.98;;;;;;;13.46;100.00;101233.16;5339145;27;20097;-81
2022/09/24 10:44:20;;;;;;;34.10;28.05;;;;;;;13.51;100.00;101228.19;5341598;27;20240;-81
2022/09/24 10:47:11;;;;;;;31.52;27.02;;;;;;;13.66;100.00;101223.16;5338615;27;20027;-81
2022/09/24 10:50:12;;;;;;;32.67;27.65;;;;;;;13.82;100.00;101230.50;5335360;27;20042;-80
2022/09/24 10:52:55;;;;;;;32.70;27.50;;;;;;;13.82;100.00;101233.16;5337680;27;20020;-81
2022/09/24 10:55:30;;;;;;;33.85;27.75;;;;;;;13.96;100.00;101236.13;5336350;27;20020;-80
2022/09/24 10:58:10;;;;;;;30.23;24.30;;;;;;;13.91;100.00;101235.75;5314411;27;20499;-80
2022/09/24 11:00:56;;;;;;;28.52;25.63;;;;;;;13.87;100.00;101237.06;5330159;27;20419;-80
2022/09/24 11:03:28;;;;;;;31.08;25.63;;;;;;;13.98;100.00;101236.81;5345997;27;20051;-80
2022/09/24 11:06:09;;;;;;;26.65;23.70;;;;;;;13.99;100.00;101243.03;5348097;27;20481;-80
2022/09/24 11:09:25;;;;;;;26.40;23.30;;;;;;;14.11;100.00;101232.88;5348204;27;20077;-80
2022/09/24 11:12:31;;;;;;;30.05;22.80;;;;;;;14.34;100.00;101238.56;5216465;28;20026;-80
2022/09/24 11:15:19;;;;;;;27.13;24.02;;;;;;;14.47;100.00;101241.69;5211715;28;20022;-80
2022/09/24 11:18:26;;;;;;;23.67;21.23;;;;;;;14.35;100.00;101235.75;5331018;27;20044;-80
2022/09/24 11:21:22;;;;;;;23.27;20.55;;;;;;;14.53;100.00;101238.41;5338154;27;20031;-80
2022/09/24 11:24:14;;;;;;;24.55;20.30;;;;;;;14.78;100.00;101240.38;5341015;27;20036;-80
2022/09/24 11:27:12;;;;;;;22.95;20.45;;;;;;;15.10;100.00;101243.22;5347004;27;20031;-80
2022/09/24 11:29:52;;;;;;;23.33;20.15;;;;;;;15.38;100.00;101242.97;5347395;27;20050;-80
2022/09/24 11:32:43;;;;;;;20.42;17.65;;;;;;;15.39;100.00;101236.59;5342989;27;20035;-80
2022/09/24 11:35:52;;;;;;;19.80;16.35;;;;;;;15.36;100.00;101234.22;5344911;27;20556;-80
2022/09/24 11:38:54;;;;;;;16.60;14.98;;;;;;;15.20;100.00;101228.78;5339010;27;20035;-80
2022/09/24 11:41:30;;;;;;;18.17;15.25;;;;;;;15.04;100.00;101219.69;5326022;27;20050;-80
2022/09/24 11:44:12;;;;;;;19.80;15.30;;;;;;;15.17;100.00;101235.34;5346776;27;20497;-80
2022/09/24 11:46:59;;;;;;;14.85;12.75;;;;;;;14.98;100.00;101235.63;5343547;27;20380;-80
2022/09/24 11:49:47;;;;;;;14.43;12.93;;;;;;;14.87;100.00;101224.16;5321184;27;20119;-80
2022/09/24 11:52:38;;;;;;;20.02;14.00;;;;;;;14.79;100.00;101220.59;5338419;27;20035;-81
2022/09/24 11:55:14;;;;;;;15.23;13.68;;;;;;;14.93;100.00;101225.34;5334694;27;20034;-81
2022/09/24 11:57:55;;;;;;;15.02;13.52;;;;;;;14.98;100.00;101239.13;5334403;27;20044;-81
2022/09/24 12:00:36;;;;;;;16.30;14.20;;;;;;;15.00;100.00;101223.69;5316443;27;20055;-81